Airfield :







YOU CAN JOIN US ON...

 
LOGIN :

Register | Disclaimer

   EN    FR    IT 

 









Legend :    VFR   Marginal VFR   IFR   Intensive IFR   Very Intensive IFR
Visi :
Ceiling :
>= 8 km
>= 3000ft
5 to 8 km
1000 to 3000 ft
1500m to 5 km
500 to 1000 ft
800 to 1500m
200 to 500 ft
< 800m
< 200 ft
Symbols :   Thunderstorms  Fog  Heavy snow  Heavy precipitations  Wind > 20 kt







- Airport Elevation : 203 ft
- IATA code : YQY


CYQY - Sydney

CURRENT METAR :
  • 171200Z 23007KT 15SM BKN100 OVC120 20/15 A2992 RMK AC5AS3 SLP132 DENSITY ALT 900FT

EXPIRED METARs :
  • 171100Z 24007KT 15SM BKN120 OVC140 19/14 A2993 RMK AC5AS3 SLP136 DENSITY ALT 700FT
  • 171000Z 24007KT 15SM BKN140 OVC160 18/14 A2991 RMK AS6AS2 SLP130 DENSITY ALT 600FT

TAF TAF CYQY
Valid from the 17 at 12:00 until the 18 at 00:00 UTC


171142Z 1712/1724 24007KT P6SM BKN120
BECMG 1713/1715 21010KT
FM171600 21010G20KT P6SM SCT060
FM172000 24010G20KT P6SM BKN040
FM172300 24012G22KT 2SM -SHRA BR BKN007 OVC040 RMK NXT FCST BY 171800Z
CZQM FIR / North America



MET'MAP, your aeronautical weather chart ! - Copyright ORBIFLY December 2007 - Disclaimer

ORBIFLY MET'MAP TEAM :

Programming & Development : Alexandra Zaïnal
Concept & Development : Baudouin d'Aumeries
Co-Development & Prog : Marc-Olivier Méhu
Technical & hardware support : Manuel Goepfert

Contact : metmap@orbifly.com




SOURCES & CREDITS :

   NOAA